createdAt,value
2019-02-21T00:01:07.048Z,59.20
2019-02-21T00:03:37.166Z,59.20
2019-02-21T00:06:07.009Z,59.20
2019-02-21T00:08:36.815Z,59.20
2019-02-21T00:11:06.607Z,59.20
2019-02-21T00:13:36.573Z,59.20
2019-02-21T00:16:06.478Z,59.30
2019-02-21T00:18:36.276Z,59.30
2019-02-21T00:21:06.174Z,59.40
2019-02-21T00:23:36.035Z,59.60
2019-02-21T00:26:05.822Z,59.30
2019-02-21T00:28:35.705Z,59.40
2019-02-21T00:31:05.534Z,59.40
2019-02-21T00:33:35.332Z,59.40
2019-02-21T00:36:05.081Z,59.50
2019-02-21T00:38:34.902Z,59.60
2019-02-21T00:41:04.739Z,59.60
2019-02-21T00:43:34.683Z,59.70
2019-02-21T00:46:04.586Z,59.60
2019-02-21T00:48:34.444Z,59.60
2019-02-21T00:51:04.216Z,59.60
2019-02-21T00:53:34.007Z,59.60
2019-02-21T00:56:03.787Z,59.70
2019-02-21T00:58:34.433Z,59.60
2019-02-21T01:01:04.169Z,59.70
2019-02-21T01:03:33.975Z,59.60
2019-02-21T01:06:03.835Z,59.70
2019-02-21T01:08:33.596Z,59.70
2019-02-21T01:11:04.004Z,59.70
2019-02-21T01:13:33.969Z,60.40
2019-02-21T01:16:03.884Z,59.80
2019-02-21T01:18:33.630Z,59.70
2019-02-21T01:21:03.578Z,59.80
2019-02-21T01:23:33.418Z,59.80
2019-02-21T01:26:03.208Z,59.90
2019-02-21T01:28:33.063Z,59.80
2019-02-21T01:31:03.045Z,59.90
2019-02-21T01:33:32.785Z,59.90
2019-02-21T01:36:02.578Z,59.90
2019-02-21T01:38:32.407Z,59.90
2019-02-21T01:41:02.412Z,59.80
2019-02-21T01:43:32.157Z,59.90
2019-02-21T01:46:01.974Z,59.90
2019-02-21T01:48:31.827Z,60.00
2019-02-21T01:51:01.712Z,60.00
2019-02-21T01:53:31.456Z,60.20
2019-02-21T01:56:01.325Z,60.40
2019-02-21T01:58:31.144Z,60.40
2019-02-21T02:01:08.530Z,60.40
2019-02-21T02:03:32.537Z,60.40
2019-02-21T02:06:02.479Z,60.80
2019-02-21T02:08:32.229Z,60.50
2019-02-21T02:11:02.069Z,60.60
2019-02-21T02:13:31.838Z,60.70
2019-02-21T02:16:01.735Z,60.60
2019-02-21T02:18:31.537Z,60.60
2019-02-21T02:21:01.490Z,60.50
2019-02-21T02:23:31.281Z,60.60
2019-02-21T02:26:01.078Z,60.80
2019-02-21T02:28:30.826Z,60.70
2019-02-21T02:31:00.726Z,60.80
2019-02-21T02:33:30.521Z,60.80
2019-02-21T02:36:00.327Z,61.00
2019-02-21T02:38:30.119Z,61.00
2019-02-21T02:41:00.023Z,61.10
2019-02-21T02:43:29.784Z,61.20
2019-02-21T02:45:59.593Z,61.30
2019-02-21T02:48:29.434Z,61.30
2019-02-21T02:50:59.285Z,61.30
2019-02-21T02:53:29.059Z,61.30
2019-02-21T02:55:58.906Z,61.30
2019-02-21T02:58:28.759Z,61.30
2019-02-21T03:00:58.561Z,61.50
2019-02-21T03:03:28.320Z,61.50
2019-02-21T03:05:58.119Z,62.60
2019-02-21T03:08:27.976Z,61.50
2019-02-21T03:10:57.865Z,62.00
2019-02-21T03:13:27.605Z,61.70
2019-02-21T03:15:57.485Z,61.90
2019-02-21T03:18:27.231Z,61.90
2019-02-21T03:20:57.055Z,61.80
2019-02-21T03:23:26.828Z,61.80
2019-02-21T03:25:56.680Z,61.90
2019-02-21T03:28:26.492Z,61.90
2019-02-21T03:30:56.272Z,61.80
2019-02-21T03:33:26.035Z,61.80
2019-02-21T03:35:55.916Z,61.80
2019-02-21T03:38:25.686Z,62.00
2019-02-21T03:40:55.470Z,61.80
2019-02-21T03:43:25.259Z,62.00
2019-02-21T03:45:55.119Z,62.50
2019-02-21T03:48:24.889Z,62.50
2019-02-21T03:50:54.748Z,62.90
2019-02-21T03:53:24.618Z,62.90
2019-02-21T03:55:54.587Z,62.90
2019-02-21T03:58:24.394Z,62.70
2019-02-21T04:00:54.359Z,63.10
2019-02-21T04:03:24.160Z,63.00
2019-02-21T04:05:53.954Z,62.90
2019-02-21T04:08:24.012Z,62.80
2019-02-21T04:10:54.050Z,62.90
2019-02-21T04:13:23.863Z,62.70
2019-02-21T04:15:53.802Z,62.90
2019-02-21T04:18:23.637Z,62.70
2019-02-21T04:20:53.512Z,63.10
2019-02-21T04:23:23.260Z,62.90
2019-02-21T04:25:53.094Z,62.90
2019-02-21T04:28:23.018Z,63.00
2019-02-21T04:30:53.389Z,63.10
2019-02-21T04:33:23.138Z,63.10
2019-02-21T04:35:52.955Z,63.10
2019-02-21T04:38:22.770Z,63.10
2019-02-21T04:40:52.581Z,63.20
2019-02-21T04:43:22.406Z,63.10
2019-02-21T04:45:52.334Z,63.00
2019-02-21T04:48:22.126Z,62.90
2019-02-21T04:50:54.386Z,62.90
2019-02-21T04:53:23.411Z,62.80
2019-02-21T04:55:53.256Z,62.80
2019-02-21T04:58:23.106Z,62.90
2019-02-21T05:00:52.904Z,63.50
2019-02-21T05:03:22.723Z,63.40
2019-02-21T05:05:52.485Z,63.50
2019-02-21T05:08:22.293Z,63.50
2019-02-21T05:10:52.084Z,63.50
2019-02-21T05:13:21.915Z,63.50
2019-02-21T05:16:11.232Z,63.50
2019-02-21T05:18:41.071Z,63.50
2019-02-21T05:21:10.849Z,63.50
2019-02-21T05:23:41.333Z,63.60
2019-02-21T05:26:12.779Z,63.60
2019-02-21T05:28:42.599Z,63.70
2019-02-21T05:31:25.336Z,63.70
2019-02-21T05:34:03.061Z,63.70
2019-02-21T05:36:52.094Z,63.90
2019-02-21T05:39:40.756Z,64.00
2019-02-21T05:42:29.854Z,63.90
2019-02-21T05:45:20.517Z,64.00
2019-02-21T05:48:15.048Z,64.40
2019-02-21T05:51:02.683Z,64.40
2019-02-21T05:53:36.794Z,64.40
2019-02-21T05:56:28.191Z,64.30
2019-02-21T05:59:16.091Z,64.40
2019-02-21T06:02:00.126Z,64.50
2019-02-21T06:04:37.742Z,64.50
2019-02-21T06:07:21.263Z,64.40
2019-02-21T06:09:57.633Z,64.40
2019-02-21T06:12:39.326Z,64.30
2019-02-21T06:15:43.910Z,64.40
2019-02-21T06:18:31.645Z,64.30
2019-02-21T06:21:20.702Z,64.20
2019-02-21T06:24:09.801Z,64.20
2019-02-21T06:26:44.877Z,64.20
2019-02-21T06:29:24.457Z,64.20
2019-02-21T06:31:54.240Z,64.40
2019-02-21T06:34:24.550Z,64.40
2019-02-21T06:36:54.673Z,64.40
2019-02-21T06:39:25.245Z,64.80
2019-02-21T06:41:59.673Z,65.10
2019-02-21T06:44:27.155Z,64.70
2019-02-21T06:46:56.919Z,64.80
2019-02-21T06:49:32.647Z,64.50
2019-02-21T06:51:58.412Z,64.40
2019-02-21T06:54:28.257Z,64.60
2019-02-21T06:57:33.115Z,63.90
2019-02-21T07:00:04.235Z,64.80
2019-02-21T07:02:34.703Z,64.60
2019-02-21T07:05:05.816Z,64.60
2019-02-21T07:07:35.601Z,64.60
2019-02-21T07:10:06.462Z,64.60
2019-02-21T07:12:36.972Z,64.50
2019-02-21T07:15:07.694Z,64.40
2019-02-21T07:17:48.529Z,64.30
2019-02-21T07:20:09.792Z,64.30
2019-02-21T07:22:40.214Z,64.30
2019-02-21T07:25:20.244Z,64.40
2019-02-21T07:27:50.016Z,64.60
2019-02-21T07:30:23.090Z,64.80
2019-02-21T07:32:51.786Z,64.80
2019-02-21T07:35:21.761Z,65.00
2019-02-21T07:37:52.847Z,65.10
2019-02-21T07:40:23.008Z,65.10
2019-02-21T07:42:52.875Z,65.10
2019-02-21T07:45:23.441Z,65.00
2019-02-21T07:47:56.446Z,65.00
2019-02-21T07:50:28.310Z,65.00
2019-02-21T07:53:02.443Z,65.00
2019-02-21T07:55:30.048Z,64.90
2019-02-21T07:58:00.426Z,65.80
2019-02-21T08:00:30.935Z,64.90
2019-02-21T08:03:01.535Z,64.80
2019-02-21T08:05:32.389Z,64.80
2019-02-21T08:08:02.143Z,64.80
2019-02-21T08:10:33.817Z,64.70
2019-02-21T08:13:04.353Z,64.50
2019-02-21T08:15:34.243Z,64.30
2019-02-21T08:18:04.066Z,64.40
2019-02-21T08:20:40.365Z,64.50
2019-02-21T08:23:10.833Z,64.50
2019-02-21T08:25:39.221Z,64.50
2019-02-21T08:28:09.591Z,64.70
2019-02-21T08:30:39.438Z,64.70
2019-02-21T08:33:34.429Z,64.80
2019-02-21T08:36:04.610Z,64.60
2019-02-21T08:38:34.403Z,64.50
2019-02-21T08:41:04.300Z,64.50
2019-02-21T08:43:37.198Z,64.70
2019-02-21T08:46:06.401Z,64.70
2019-02-21T08:48:36.742Z,64.70
2019-02-21T08:51:07.015Z,64.50
2019-02-21T08:53:36.884Z,64.50
2019-02-21T08:56:06.702Z,64.50
2019-02-21T08:58:37.095Z,64.40
2019-02-21T09:01:07.412Z,64.40
2019-02-21T09:04:13.380Z,64.40
2019-02-21T09:07:07.457Z,64.40
2019-02-21T09:10:28.846Z,64.30
2019-02-21T09:13:24.339Z,64.30
2019-02-21T09:16:28.370Z,64.20
2019-02-21T09:18:58.280Z,64.30
2019-02-21T09:21:29.875Z,64.30
2019-02-21T09:23:59.858Z,64.50
2019-02-21T09:26:29.710Z,64.50
2019-02-21T09:28:59.680Z,64.60
2019-02-21T09:31:29.925Z,64.60
2019-02-21T09:33:59.771Z,64.70
2019-02-21T09:36:29.523Z,65.00
2019-02-21T09:38:59.725Z,64.90
2019-02-21T09:41:30.534Z,65.40
2019-02-21T09:44:00.294Z,65.00
2019-02-21T09:46:30.113Z,65.20
2019-02-21T09:48:59.992Z,65.10
2019-02-21T09:51:30.543Z,65.50
2019-02-21T09:54:00.478Z,65.30
2019-02-21T09:56:30.917Z,65.30
2019-02-21T09:59:01.233Z,65.40
2019-02-21T10:01:31.161Z,65.20
2019-02-21T10:04:00.909Z,65.20
2019-02-21T10:06:31.038Z,66.00
2019-02-21T10:09:01.116Z,65.00
2019-02-21T10:11:31.045Z,64.90
2019-02-21T10:14:03.520Z,65.00
2019-02-21T10:16:33.974Z,65.10
2019-02-21T10:19:03.795Z,65.30
2019-02-21T10:21:39.481Z,65.00
2019-02-21T10:24:09.590Z,64.90
2019-02-21T10:26:39.957Z,64.80
2019-02-21T10:29:09.737Z,64.60
2019-02-21T10:31:40.683Z,64.70
2019-02-21T10:34:10.833Z,64.60
2019-02-21T10:36:47.767Z,64.60
2019-02-21T10:39:31.190Z,64.60
2019-02-21T10:42:04.975Z,64.60
2019-02-21T10:44:50.238Z,64.50
2019-02-21T10:47:20.179Z,64.50
2019-02-21T10:49:50.028Z,64.40
2019-02-21T10:52:20.333Z,64.30
2019-02-21T10:54:53.449Z,64.30
2019-02-21T10:57:34.083Z,64.30
2019-02-21T11:00:04.676Z,64.20
2019-02-21T11:02:34.466Z,64.10
2019-02-21T11:05:04.922Z,64.00
2019-02-21T11:07:35.301Z,62.80
2019-02-21T11:10:06.032Z,63.80
2019-02-21T11:12:36.320Z,63.60
2019-02-21T11:15:08.124Z,63.50
2019-02-21T11:17:38.033Z,63.30
2019-02-21T11:20:10.071Z,63.30
2019-02-21T11:22:40.130Z,63.10
2019-02-21T11:25:10.373Z,63.20
2019-02-21T11:27:40.727Z,63.10
2019-02-21T11:30:18.035Z,63.00
2019-02-21T11:32:48.642Z,63.00
2019-02-21T11:35:18.395Z,62.90
2019-02-21T11:37:48.621Z,63.10
2019-02-21T11:40:18.402Z,62.90
2019-02-21T11:42:48.213Z,62.90
2019-02-21T11:45:18.074Z,62.90
2019-02-21T11:47:47.906Z,62.90
2019-02-21T11:50:18.443Z,62.80
2019-02-21T11:52:48.261Z,62.70
2019-02-21T11:55:19.666Z,62.90
2019-02-21T11:57:49.926Z,63.40
2019-02-21T12:00:24.900Z,62.70
2019-02-21T12:02:54.798Z,62.70
2019-02-21T12:09:18.156Z,62.80
2019-02-21T12:11:47.965Z,62.50
2019-02-21T12:14:18.498Z,62.40
2019-02-21T12:16:48.304Z,62.20
2019-02-21T12:19:18.410Z,62.10
2019-02-21T12:21:58.628Z,62.00
2019-02-21T12:24:20.030Z,61.90
2019-02-21T12:26:50.625Z,61.90
2019-02-21T12:29:21.805Z,61.70
2019-02-21T12:31:51.727Z,61.50
2019-02-21T12:34:22.185Z,61.30
2019-02-21T12:36:52.017Z,61.00
2019-02-21T12:39:21.795Z,60.70
2019-02-21T12:41:51.651Z,60.40
2019-02-21T12:44:21.689Z,60.60
2019-02-21T12:46:51.743Z,60.40
2019-02-21T12:49:21.770Z,60.10
2019-02-21T12:51:52.066Z,60.30
2019-02-21T12:54:21.836Z,60.20
2019-02-21T12:56:54.060Z,60.30
2019-02-21T12:59:23.866Z,60.10
2019-02-21T13:01:53.758Z,60.20
2019-02-21T13:04:23.620Z,60.10
2019-02-21T13:06:53.971Z,60.10
2019-02-21T13:09:23.913Z,60.20
2019-02-21T13:11:53.650Z,60.10
2019-02-21T13:14:23.991Z,60.20
2019-02-21T13:16:54.487Z,60.10
2019-02-21T13:19:24.300Z,60.10
2019-02-21T13:22:02.158Z,60.00
2019-02-21T13:24:32.064Z,59.90
2019-02-21T13:27:02.194Z,59.90
2019-02-21T13:29:32.412Z,59.90
2019-02-21T13:32:02.161Z,59.80
2019-02-21T13:34:32.497Z,59.80
2019-02-21T13:37:02.860Z,59.80
2019-02-21T13:39:32.686Z,59.80
2019-02-21T13:42:02.613Z,60.30
2019-02-21T13:44:32.633Z,60.00
2019-02-21T13:47:03.033Z,60.00
2019-02-21T13:49:32.831Z,60.00
2019-02-21T13:52:02.898Z,60.00
2019-02-21T13:54:32.808Z,60.00
2019-02-21T13:57:02.599Z,60.30
2019-02-21T13:59:34.923Z,60.10
2019-02-21T14:02:04.617Z,60.10
2019-02-21T14:04:34.423Z,60.10
2019-02-21T14:07:04.847Z,60.10
2019-02-21T14:09:34.712Z,60.10
2019-02-21T14:12:04.487Z,60.10
2019-02-21T14:14:34.360Z,60.20
2019-02-21T14:17:04.251Z,60.00
2019-02-21T14:19:34.123Z,60.00
2019-02-21T14:22:03.904Z,60.10
2019-02-21T14:24:37.144Z,60.10
2019-02-21T14:27:08.703Z,60.30
2019-02-21T14:29:44.096Z,60.20
2019-02-21T14:32:14.146Z,60.20
2019-02-21T14:34:44.204Z,60.10
2019-02-21T14:37:14.014Z,60.10
2019-02-21T14:39:43.862Z,60.10
2019-02-21T14:42:13.707Z,60.10
2019-02-21T14:44:44.081Z,60.10
2019-02-21T14:47:13.905Z,60.10
2019-02-21T14:49:43.929Z,60.10
2019-02-21T14:52:13.825Z,60.10
2019-02-21T14:54:43.755Z,60.00
2019-02-21T14:57:15.279Z,60.00
2019-02-21T14:59:45.073Z,60.00
2019-02-21T15:02:14.887Z,59.90
2019-02-21T15:04:44.922Z,60.00
2019-02-21T15:07:14.886Z,59.90
2019-02-21T15:09:45.633Z,59.90
2019-02-21T15:12:16.776Z,59.90
2019-02-21T15:14:46.604Z,59.80
2019-02-21T15:17:18.515Z,59.90
2019-02-21T15:19:47.895Z,59.70
2019-02-21T15:22:17.658Z,59.80
2019-02-21T15:24:47.472Z,59.70
2019-02-21T15:27:17.256Z,59.70
2019-02-21T15:29:47.069Z,59.80
2019-02-21T15:32:16.998Z,59.70
2019-02-21T15:34:47.339Z,59.70
2019-02-21T15:37:17.294Z,59.80
2019-02-21T15:39:47.136Z,59.70
2019-02-21T15:42:16.907Z,59.70
2019-02-21T15:44:46.726Z,59.70
2019-02-21T15:47:16.480Z,59.70
2019-02-21T15:49:46.303Z,59.70
2019-02-21T15:52:22.186Z,59.70
2019-02-21T15:54:47.602Z,59.70
2019-02-21T15:57:17.450Z,59.70
2019-02-21T15:59:47.288Z,59.70
2019-02-21T16:02:17.058Z,59.60
2019-02-21T16:04:47.653Z,59.70
2019-02-21T16:07:17.754Z,59.80
2019-02-21T16:09:47.651Z,60.90
2019-02-21T16:12:17.832Z,60.20
2019-02-21T16:14:48.834Z,60.10
2019-02-21T16:17:18.728Z,60.00
2019-02-21T16:19:48.552Z,59.90
2019-02-21T16:22:18.366Z,59.80
2019-02-21T16:24:49.701Z,59.70
2019-02-21T16:27:19.462Z,59.70
2019-02-21T16:29:49.547Z,59.60
2019-02-21T16:32:19.902Z,60.00
2019-02-21T16:34:49.770Z,60.20
2019-02-21T16:37:19.589Z,60.30
2019-02-21T16:39:49.660Z,60.40
2019-02-21T16:42:19.724Z,60.50
2019-02-21T16:44:49.572Z,59.90
2019-02-21T16:47:19.637Z,60.00
2019-02-21T16:49:49.803Z,59.70
2019-02-21T16:52:19.643Z,59.50
2019-02-21T16:54:49.479Z,59.40
2019-02-21T16:57:19.506Z,59.40
2019-02-21T16:59:50.254Z,59.30
2019-02-21T17:02:20.841Z,59.30
2019-02-21T17:04:50.703Z,59.30
2019-02-21T17:07:20.542Z,59.30
2019-02-21T17:09:50.395Z,60.00
2019-02-21T17:12:20.204Z,60.10
2019-02-21T17:14:50.083Z,60.10
2019-02-21T17:17:19.913Z,60.00
2019-02-21T17:19:49.732Z,59.90
2019-02-21T17:22:19.643Z,59.80
2019-02-21T17:24:49.493Z,59.80
2019-02-21T17:27:19.276Z,59.80
2019-02-21T17:29:49.133Z,59.80
2019-02-21T17:32:19.007Z,59.80
2019-02-21T17:34:48.863Z,59.90
2019-02-21T17:37:24.874Z,59.90
2019-02-21T17:39:50.301Z,59.90
2019-02-21T17:42:20.062Z,59.90
2019-02-21T17:44:50.997Z,60.00
2019-02-21T17:47:20.811Z,60.00
2019-02-21T17:49:50.709Z,60.00
2019-02-21T17:52:20.462Z,60.00
2019-02-21T17:54:50.402Z,60.00
2019-02-21T17:57:20.323Z,60.00
2019-02-21T17:59:50.141Z,60.00
2019-02-21T18:02:19.898Z,60.00
2019-02-21T18:04:49.749Z,60.00
2019-02-21T18:07:19.712Z,60.10
2019-02-21T18:09:50.778Z,60.00
2019-02-21T18:12:20.832Z,60.00
2019-02-21T18:14:50.669Z,60.00
2019-02-21T18:17:20.428Z,60.10
2019-02-21T18:19:51.315Z,60.10
2019-02-21T18:22:21.361Z,60.10
2019-02-21T18:24:52.366Z,60.30
2019-02-21T18:27:22.188Z,60.20
2019-02-21T18:29:52.188Z,60.20
2019-02-21T18:32:21.977Z,60.30
2019-02-21T18:34:51.804Z,60.20
2019-02-21T18:37:21.721Z,60.20
2019-02-21T18:39:51.618Z,60.30
2019-02-21T18:42:21.449Z,60.30
2019-02-21T18:44:51.266Z,60.30
2019-02-21T18:47:21.367Z,60.30
2019-02-21T18:49:51.147Z,60.30
2019-02-21T18:52:20.955Z,60.30
2019-02-21T18:54:50.760Z,60.40
2019-02-21T18:57:20.842Z,60.50
2019-02-21T18:59:50.659Z,60.50
2019-02-21T19:02:20.563Z,60.50
2019-02-21T19:04:50.526Z,60.50
2019-02-21T19:07:20.335Z,61.40
2019-02-21T19:09:50.102Z,60.60
2019-02-21T19:12:29.431Z,60.60
2019-02-21T19:14:59.243Z,60.60
2019-02-21T19:17:29.103Z,60.50
2019-02-21T19:19:58.874Z,60.60
2019-02-21T19:22:28.692Z,60.70
2019-02-21T19:24:58.557Z,60.70
2019-02-21T19:27:36.822Z,60.70
2019-02-21T19:29:59.936Z,60.80
2019-02-21T19:32:29.795Z,60.80
2019-02-21T19:34:59.575Z,61.00
2019-02-21T19:37:29.389Z,60.90
2019-02-21T19:39:59.264Z,60.90
2019-02-21T19:42:29.220Z,60.90
2019-02-21T19:44:58.996Z,60.90
2019-02-21T19:47:28.872Z,60.90
2019-02-21T19:49:58.810Z,62.00
2019-02-21T19:52:28.662Z,61.10
2019-02-21T19:54:58.530Z,61.30
2019-02-21T19:57:28.359Z,61.40
2019-02-21T19:59:58.585Z,61.40
2019-02-21T20:02:28.403Z,61.40
2019-02-21T20:04:58.292Z,61.50
2019-02-21T20:07:28.189Z,61.50
2019-02-21T20:09:58.140Z,61.70
2019-02-21T20:12:28.804Z,61.70
2019-02-21T20:14:58.650Z,61.80
2019-02-21T20:17:28.626Z,61.80
2019-02-21T20:19:58.403Z,61.80
2019-02-21T20:22:28.336Z,62.90
2019-02-21T20:24:58.124Z,61.90
2019-02-21T20:27:28.267Z,61.90
2019-02-21T20:29:58.254Z,62.00
2019-02-21T20:32:28.340Z,62.00
2019-02-21T20:34:58.204Z,62.00
2019-02-21T20:37:28.311Z,62.10
2019-02-21T20:39:58.159Z,62.00
2019-02-21T20:42:31.338Z,62.10
2019-02-21T20:45:00.400Z,62.00
2019-02-21T20:47:30.755Z,62.10
2019-02-21T20:50:01.073Z,62.10
2019-02-21T20:52:31.612Z,62.20
2019-02-21T20:55:07.502Z,62.10
2019-02-21T20:57:38.215Z,62.20
2019-02-21T21:00:09.804Z,62.20
2019-02-21T21:02:40.982Z,62.20
2019-02-21T21:05:11.686Z,62.20
2019-02-21T21:07:43.240Z,62.20
2019-02-21T21:10:14.312Z,62.20
2019-02-21T21:12:45.200Z,62.20
2019-02-21T21:15:15.333Z,62.20
2019-02-21T21:17:45.307Z,62.20
2019-02-21T21:22:46.043Z,62.20
2019-02-21T21:25:16.780Z,62.40
2019-02-21T21:27:47.809Z,62.20
2019-02-21T21:30:18.104Z,62.30
2019-02-21T21:32:54.498Z,62.20
2019-02-21T21:35:24.355Z,62.30
2019-02-21T21:37:54.377Z,62.20
2019-02-21T21:40:25.567Z,62.20
2019-02-21T21:42:56.557Z,62.20
2019-02-21T21:45:26.848Z,62.30
2019-02-21T21:47:57.457Z,63.10
2019-02-21T21:50:27.646Z,62.20
2019-02-21T21:52:57.493Z,62.20
2019-02-21T21:55:27.959Z,62.20
2019-02-21T21:57:58.163Z,62.20
2019-02-21T22:00:28.566Z,62.20
2019-02-21T22:02:58.587Z,62.20
2019-02-21T22:05:28.665Z,62.30
2019-02-21T22:07:58.919Z,62.30
2019-02-21T22:10:28.730Z,62.30
2019-02-21T22:12:58.502Z,62.30
2019-02-21T22:15:28.552Z,62.40
2019-02-21T22:17:58.526Z,62.40
2019-02-21T22:20:28.511Z,62.40
2019-02-21T22:22:58.772Z,62.50
2019-02-21T22:25:28.953Z,62.50
2019-02-21T22:27:58.763Z,62.50
2019-02-21T22:30:28.611Z,62.60
2019-02-21T22:32:58.756Z,62.60
2019-02-21T22:35:29.157Z,62.50
2019-02-21T22:37:58.938Z,62.70
2019-02-21T22:40:29.342Z,62.60
2019-02-21T22:42:59.437Z,62.70
2019-02-21T22:45:29.236Z,62.60
2019-02-21T22:47:59.049Z,62.60
2019-02-21T22:50:29.446Z,62.60
2019-02-21T22:52:59.564Z,62.60
2019-02-21T22:55:29.373Z,62.00
2019-02-21T22:57:59.939Z,62.60
2019-02-21T23:00:59.719Z,62.50
2019-02-21T23:03:46.324Z,62.50
2019-02-21T23:06:53.112Z,62.50
2019-02-21T23:09:27.962Z,62.50
2019-02-21T23:11:57.385Z,62.60
2019-02-21T23:14:28.221Z,62.60
2019-02-21T23:16:58.113Z,62.80
2019-02-21T23:19:28.678Z,62.90
2019-02-21T23:21:58.525Z,63.00
2019-02-21T23:24:28.300Z,62.90
2019-02-21T23:26:58.666Z,62.90
2019-02-21T23:29:33.864Z,62.80
2019-02-21T23:32:04.563Z,62.90
2019-02-21T23:34:37.706Z,62.90
2019-02-21T23:37:08.419Z,62.90
2019-02-21T23:39:38.777Z,63.00
2019-02-21T23:42:08.756Z,62.90
2019-02-21T23:44:39.066Z,62.90
2019-02-21T23:47:10.040Z,62.90
2019-02-21T23:49:40.415Z,62.90
2019-02-21T23:52:11.105Z,62.90
2019-02-21T23:54:41.050Z,63.00
2019-02-21T23:57:10.874Z,63.00
2019-02-21T23:59:40.867Z,63.10
